This is the latest recevied weather packets stored in our database for station/object RV1CJ-14. If no packets are shown the sender has not sent any weather packets the latest 10 day(s).
| Time | Temp. | Humidity | Pressure | Rain* | Wind** | Luminosity | Snow |
|---|---|---|---|---|---|---|---|
| 1777917603 | 11.67° C | 89% | 997.2 hPa | 0 mm | - | 0 W/m² | - |
| 1777917003 | 12.22° C | 89% | 997.1 hPa | 0 mm | - | 5 W/m² | - |
| 1777916403 | 12.22° C | 89% | 996.9 hPa | 0 mm | - | 9 W/m² | - |
| 1777915803 | 12.22° C | 88% | 996.6 hPa | 0 mm | - | 12 W/m² | - |
| 1777915203 | 12.78° C | 87% | 996.7 hPa | 0 mm | - | 7 W/m² | - |
| 1777914603 | 13.33° C | 87% | 996.7 hPa | 0 mm | - | 5 W/m² | - |
| 1777914003 | 13.89° C | 85% | 996.6 hPa | 0 mm | - | 0 W/m² | - |
| 1777913403 | 13.89° C | 85% | 996.4 hPa | 0 mm | - | 0 W/m² | - |
| 1777912803 | 14.44° C | 83% | 996.5 hPa | 0 mm | - | 7 W/m² | - |
| 1777912203 | 15° C | 81% | 996.6 hPa | 0 mm | - | 9 W/m² | - |
| 1777911603 | 16.11° C | 77% | 996.4 hPa | 0 mm | - | 7 W/m² | - |
| 1777911003 | 17.78° C | 71% | 996.1 hPa | 0 mm | - | 0 W/m² | - |
| 1777910403 | 18.89° C | 68% | 996 hPa | 0 mm | - | 9 W/m² | - |
| 1777909803 | 18.89° C | 68% | 995.9 hPa | 0 mm | - | 16 W/m² | - |
| 1777909203 | 18.89° C | 68% | 995.9 hPa | 0 mm | - | 35 W/m² | - |
| 1777908603 | 18.33° C | 69% | 995.9 hPa | 0 mm | - | 37 W/m² | - |
| 1777908003 | 18.33° C | 69% | 996 hPa | 0 mm | - | 42 W/m² | - |
| 1777907403 | 18.33° C | 69% | 996.2 hPa | 0 mm | - | 37 W/m² | - |
| 1777906803 | 17.78° C | 70% | 996.3 hPa | 0 mm | - | 58 W/m² | - |
| 1777906203 | 17.78° C | 70% | 996.6 hPa | 0 mm | - | 58 W/m² | - |
| 1777905603 | 17.78° C | 71% | 996.6 hPa | 0 mm | - | 33 W/m² | - |
| 1777905003 | 17.22° C | 71% | 996.7 hPa | 0 mm | - | 44 W/m² | - |
| 1777904403 | 17.22° C | 73% | 996.9 hPa | 0 mm | - | 40 W/m² | - |
| 1777903803 | 16.67° C | 73% | 997.1 hPa | 0.25 mm | - | 25 W/m² | - |
| 1777903203 | 16.67° C | 72% | 997.5 hPa | 0.25 mm | - | 32 W/m² | - |
* Rain latest hour (hover to see other rain measurements)
** Current wind speed in m/s (hover to see current wind gust speed)